Rio Rancho, NM

10:55 PM MST on March 02, 2015 (GMT -0700)
Albuquerque Double Eagle | Change Station
CLOSE
Current Station
Airport
Location: Albuquerque Double Eagle,
Elevation: 5837 ft
Nearby Weather Stations

Elev 5837 ft 35.15 °N, 106.79 °W | Updated 20 minutes ago

Overcast
Overcast
40 °F
Feels Like 33 °F
N
13
Wind Variable Wind from West

Today
High -- | Low -- °F
--% Chance of Precip.
Yesterday
High -- | Low -- °F
Precip. -- in
6:35 AM 6:03 PM
Waxing Gibbous, 94% visible
Pressure 29.98 in
Visibility 10.0 miles
Clouds Mostly Cloudy 4800 ft
Overcast 5500 ft
Windchill 33 °F
Dew Point 34 °F
Humidity 78%
Rainfall 0.03 in
Snow Depth Not available.
UV 0 out of 12
Pollen 6.60 out of 12
Air Quality Not available.
Flu Activity Not available.
METAR KAEG 030535Z AUTO 26011KT 10SM -RA BKN048 OVC055 05/01 A2998 RMK AO2 T00450009

More Conditions Fewer Conditions

Pressure 29.98 in
Visibility 10.0 miles
Clouds Mostly Cloudy 4800 ft
Overcast 5500 ft
Windchill 33 °F
Dew Point 34 °F
Humidity 78%
Rainfall 0.03 in
Snow Depth Not available.
UV 0 out of 12
Pollen 6.60 out of 12
Air Quality Not available.
Flu Activity Not available.
METAR KAEG 030535Z AUTO 26011KT 10SM -RA BKN048 OVC055 05/01 A2998 RMK AO2 T00450009

More Conditions Fewer Conditions

Nowcast | as of 10:32 PM MST on March 2, 2015

Through 1 am MST...areas of rain and higher elevation snow showers will continue across central and western New Mexico behind an eastward advancing cold front. Rain amounts will generally be a tenth of an inch or less...with a couple inches of snow possible above 7000 feet. In addition...windy conditions will continue with occasional gusts to between 35 and 45 mph...especially in the mountains. The combination of windy conditions with snow will create patches of blowing snow in the jemez and Sangre de Cristo Mountains with visibilities occasionally limited to near one quarter mile. For the latest Road conditions dial 5 1 1 or visit N M roads dot com.

×

10-Day Weather Forecast

Almanac

Astronomy

Mar. 02, 2015 Rise Set
Actual Time
Civil Twilight
Nautical Twilight
Astronomical Twilight
Moon
Length of Visible Light
Length of Day
Tomorrow will be .
, % of the Moon is Illuminated

Today's Extremes

State Highs State Lows

Community

WunderPhotos

Upload Photos

1,802,068 photos uploaded!

WunderBlogs® & News

Nearby

Air Quality

  Air Quality AQ Index Pollutant
Not available.

Snow Depth

Station Depth Elevation

Earthquake Activity

City Distance Mag. Time & Date
Minimum magnitude displayed is 2.5.

Coastal Water Temperatures

Place Temperature

Nearby Weather Stations